메인 페이지
METAR-TAF:

METAR-TAF

공항 :

오타와, 온타리오, 캐나다

오타와 맥도널드 카르티에 국제공항

위도: 45-19N, 경도: 075-40W, 고도: 116m

현재 날씨관측

예보는 56분 전, 08:00시(UTC)에 발표되었습니다.
서남서3kt
온도 0°C
습도 74%
기압 1017 hPa
시정: 24.1km
고도 4000ft 상공 구름 조금
고도 5700ft 상공 흐림

METAR: CYOW 210800Z 25003KT 15SM FEW040 OVC057 M00/M04 A3003 RMK SC2SC6 PRESRR SLP176

시각: 03:56 (08:56 UTC)

예보

예보는 18분 전, 08:38시(UTC)에 발표되었습니다.
예보 대상 시간: 21일 09시부터 22일 06시까지 (UTC)
여러 방향의 바람 3kt
시정: 10km
고도 5000ft 상공 구름 많음
21일 1000시부터 (UTC)
여러 방향의 바람 3kt
시정: 10km
고도 2000ft 상공 구름 보통
고도 3000ft 상공 구름 많음
일시적
21일 10시부터 21일 15시까지 (UTC)
고도 2000ft 상공 구름 많음
21일 1500시부터 (UTC)
5kt
시정: 10km
고도 1500ft 상공 흐림
21일 2000시부터 (UTC)
5kt
시정: 8.0km
고도 1500ft 상공 흐림
약한눈
21일 2300시부터 (UTC)
5kt
시정: 1.2km
고도 500ft 상공 흐림
약한눈

TAF: CYOW 210838Z 2109/2206 VRB03KT P6SM BKN050 FM211000 VRB03KT P6SM SCT020 BKN030 TEMPO 2110/2115 BKN020 FM211500 10005KT P6SM OVC015 FM212000 09005KT 5SM -SN OVC015 FM212300 08005KT 3/4SM -SN OVC005 RMK NXT FCST BY 211200Z

4,000개 이상의 공항 관측 자료 및 예보 (METAR 및 TAF 보고).

지도상에서 검색 가능한 기상관측소가 노란 점과 빨간 점으로 표시되어 있습니다.

기상관측소 명을 보려면 표시 위로 마우스를 이동하세요.

날씨 관측과 예보를 보려면 클릭하세요.

지도 변경 : 확대하려면 엑스 표시가 있는 녹색 버튼, 축소하려면 빼기 표시가 있는 녹색 버튼, 다음 페이지의 지도를 보려면 녹색 화살표를 클릭하세요.


METAR-TAF: